Terminal Aerodrome Forecast
Issued by NWS Bismarck, ND

Home | Current Version | Previous Version | Graphics & Text | Print | Product List | Glossary On
Versions: 1 2 3 4 5 6 7 8 9 10 11 12 13 14 15
000
FTUS43 KBIS 251128
TAFISN
TAF
KISN 251128Z 2512/2612 31010KT P6SM SCT035 BKN060
     FM251400 29008KT P6SM SCT050
     FM252100 30008KT P6SM SCT070
     FM260300 23004KT P6SM SCT080=

USA.gov is the U.S. government's official web portal to all federal, state and local government web resources and services.